EWG86GR LIMC-EDDS
Flight info
| Callsign | EWG86GR |
|---|---|
| Flight time | 0h 46m |
| Altitude | 24000 |
| Route | PEPAG DCT ABESI N851 UTAVO DCT SOPER N851 ROMIR T125 REUTL REUTL5A |
| Aircraft | A320/M-SDE3FGHIRWY/LB1 |
Departure
| Time | 2026-04-30 20:44 |
|---|---|
| Airport | Milan Malpensa International Airport (LIMC) |
Arrival
| Time | 2026-04-30 21:30 |
|---|---|
| Airport | Stuttgart Airport (EDDS) |
| Time | Latitude | Longitude | Altitude | Speed | Heading |
|---|---|---|---|---|---|
| 2026-04-30 20:10 | 45.62384 | 8.71646 | 741 ft | 0 kts | 349° |
| 2026-04-30 20:32 | 45.62361 | 8.71651 | 740 ft | 4 kts | 354° |
| 2026-04-30 20:32 | 45.62317 | 8.71649 | 741 ft | 4 kts | 22° |
| 2026-04-30 20:33 | 45.62300 | 8.71630 | 739 ft | 2 kts | 78° |
| 2026-04-30 20:33 | 45.62299 | 8.71621 | 738 ft | 0 kts | 79° |
| 2026-04-30 20:35 | 45.62299 | 8.71622 | 738 ft | 0 kts | 79° |
| 2026-04-30 20:35 | 45.62307 | 8.71681 | 740 ft | 7 kts | 80° |
| 2026-04-30 20:36 | 45.62319 | 8.71775 | 741 ft | 12 kts | 79° |
| 2026-04-30 20:36 | 45.62321 | 8.71904 | 740 ft | 14 kts | 121° |
| 2026-04-30 20:36 | 45.62074 | 8.71990 | 740 ft | 22 kts | 168° |
| 2026-04-30 20:37 | 45.61919 | 8.72033 | 742 ft | 24 kts | 169° |
| 2026-04-30 20:37 | 45.61752 | 8.72080 | 740 ft | 25 kts | 170° |
| 2026-04-30 20:37 | 45.61576 | 8.72128 | 742 ft | 26 kts | 168° |
| 2026-04-30 20:37 | 45.61392 | 8.72180 | 742 ft | 28 kts | 169° |
| 2026-04-30 20:38 | 45.61200 | 8.72231 | 742 ft | 29 kts | 168° |
| 2026-04-30 20:38 | 45.61002 | 8.72285 | 742 ft | 29 kts | 168° |
| 2026-04-30 20:38 | 45.60799 | 8.72340 | 742 ft | 30 kts | 167° |
| 2026-04-30 20:39 | 45.60628 | 8.72639 | 742 ft | 22 kts | 96° |
| 2026-04-30 20:39 | 45.60612 | 8.72866 | 742 ft | 24 kts | 95° |
| 2026-04-30 20:39 | 45.60595 | 8.73088 | 741 ft | 11 kts | 96° |
| 2026-04-30 20:40 | 45.60645 | 8.73278 | 742 ft | 12 kts | 26° |
| 2026-04-30 20:40 | 45.60718 | 8.73321 | 741 ft | 11 kts | 22° |
| 2026-04-30 20:40 | 45.60795 | 8.73365 | 742 ft | 12 kts | 21° |
| 2026-04-30 20:41 | 45.60967 | 8.73390 | 742 ft | 13 kts | 354° |
| 2026-04-30 20:41 | 45.61054 | 8.73368 | 742 ft | 13 kts | 348° |
| 2026-04-30 20:41 | 45.61160 | 8.73337 | 742 ft | 19 kts | 349° |
| 2026-04-30 20:41 | 45.61316 | 8.73296 | 741 ft | 26 kts | 349° |
| 2026-04-30 20:42 | 45.61498 | 8.73246 | 741 ft | 24 kts | 349° |
| 2026-04-30 20:42 | 45.61617 | 8.73261 | 741 ft | 16 kts | 57° |
| 2026-04-30 20:42 | 45.61586 | 8.73601 | 742 ft | 20 kts | 93° |
| 2026-04-30 20:43 | 45.61676 | 8.73722 | 742 ft | 22 kts | 358° |
| 2026-04-30 20:43 | 45.61982 | 8.73640 | 742 ft | 81 kts | 349° |
| 2026-04-30 20:43 | 45.62771 | 8.73422 | 740 ft | 147 kts | 349° |
| 2026-04-30 20:44 | 45.65030 | 8.72815 | 1997 ft | 166 kts | 356° |
| 2026-04-30 20:44 | 45.66100 | 8.73325 | 2675 ft | 167 kts | 51° |
| 2026-04-30 20:44 | 45.66399 | 8.76349 | 4186 ft | 160 kts | 82° |
| 2026-04-30 20:45 | 45.68212 | 8.78537 | 5107 ft | 195 kts | 31° |
| 2026-04-30 20:45 | 45.69380 | 8.79676 | 5590 ft | 210 kts | 37° |
| 2026-04-30 20:45 | 45.70532 | 8.80964 | 6352 ft | 209 kts | 39° |
| 2026-04-30 20:46 | 45.72580 | 8.86112 | 8294 ft | 223 kts | 104° |
| 2026-04-30 20:46 | 45.71828 | 8.88145 | 8771 ft | 244 kts | 124° |
| 2026-04-30 20:47 | 45.69737 | 8.92180 | 10487 ft | 257 kts | 125° |
| 2026-04-30 20:47 | 45.68657 | 8.94242 | 11345 ft | 261 kts | 124° |
| 2026-04-30 20:48 | 45.66469 | 8.98486 | 12955 ft | 268 kts | 123° |
| 2026-04-30 20:48 | 45.65419 | 9.00703 | 13788 ft | 273 kts | 114° |
| 2026-04-30 20:48 | 45.64873 | 9.03369 | 14140 ft | 290 kts | 89° |
| 2026-04-30 20:48 | 45.65227 | 9.06251 | 14412 ft | 307 kts | 63° |
| 2026-04-30 20:49 | 45.66577 | 9.08672 | 14732 ft | 322 kts | 35° |
| 2026-04-30 20:49 | 45.68667 | 9.09868 | 15340 ft | 331 kts | 7° |
| 2026-04-30 20:49 | 45.70980 | 9.09610 | 16070 ft | 338 kts | 351° |
| 2026-04-30 20:50 | 45.75669 | 9.08807 | 17659 ft | 341 kts | 359° |
| 2026-04-30 20:50 | 45.77999 | 9.08627 | 18422 ft | 344 kts | 359° |
| 2026-04-30 20:50 | 45.80399 | 9.08456 | 19115 ft | 347 kts | 359° |
| 2026-04-30 20:50 | 45.82793 | 9.08261 | 19764 ft | 350 kts | 359° |
| 2026-04-30 20:51 | 45.85236 | 9.08023 | 20361 ft | 355 kts | 358° |
| 2026-04-30 20:51 | 45.90186 | 9.07449 | 21599 ft | 362 kts | 358° |
| 2026-04-30 20:51 | 45.92704 | 9.07134 | 22232 ft | 365 kts | 358° |
| 2026-04-30 20:52 | 45.95244 | 9.06816 | 22858 ft | 368 kts | 358° |
| 2026-04-30 20:52 | 45.97817 | 9.06499 | 23322 ft | 376 kts | 358° |
| 2026-04-30 20:52 | 46.03132 | 9.05846 | 23867 ft | 397 kts | 358° |
| 2026-04-30 20:53 | 46.05907 | 9.05507 | 24237 ft | 402 kts | 358° |
| 2026-04-30 20:53 | 46.08736 | 9.05163 | 24328 ft | 415 kts | 358° |
| 2026-04-30 20:53 | 46.11666 | 9.04808 | 24328 ft | 429 kts | 358° |
| 2026-04-30 20:54 | 46.17767 | 9.04063 | 24326 ft | 450 kts | 357° |
| 2026-04-30 20:54 | 46.20897 | 9.03656 | 24327 ft | 453 kts | 357° |
| 2026-04-30 20:54 | 46.24041 | 9.03226 | 24327 ft | 454 kts | 357° |
| 2026-04-30 20:55 | 46.30336 | 9.02359 | 24323 ft | 455 kts | 357° |
| 2026-04-30 20:55 | 46.33482 | 9.01938 | 24320 ft | 454 kts | 357° |
| 2026-04-30 20:55 | 46.36626 | 9.01518 | 24319 ft | 454 kts | 357° |
| 2026-04-30 20:56 | 46.42923 | 9.00678 | 24306 ft | 454 kts | 357° |
| 2026-04-30 20:56 | 46.46068 | 9.00258 | 24292 ft | 454 kts | 357° |
| 2026-04-30 20:56 | 46.52319 | 8.99419 | 24286 ft | 453 kts | 357° |
| 2026-04-30 20:57 | 46.55462 | 8.98994 | 24288 ft | 453 kts | 357° |
| 2026-04-30 20:57 | 46.58603 | 8.98571 | 24285 ft | 453 kts | 357° |
| 2026-04-30 20:57 | 46.61748 | 8.98145 | 24282 ft | 453 kts | 357° |
| 2026-04-30 20:58 | 46.68020 | 8.97413 | 24268 ft | 442 kts | 359° |
| 2026-04-30 20:58 | 46.71003 | 8.97268 | 24263 ft | 416 kts | 1° |
| 2026-04-30 20:58 | 46.73814 | 8.97223 | 24265 ft | 393 kts | 2° |
| 2026-04-30 20:58 | 46.76473 | 8.97209 | 24257 ft | 371 kts | 2° |
| 2026-04-30 20:59 | 46.81447 | 8.97155 | 24263 ft | 351 kts | 2° |
| 2026-04-30 20:59 | 46.83884 | 8.97102 | 24265 ft | 350 kts | 2° |
| 2026-04-30 21:00 | 46.88750 | 8.96963 | 24254 ft | 349 kts | 1° |
| 2026-04-30 21:00 | 46.93610 | 8.96789 | 24256 ft | 350 kts | 1° |
| 2026-04-30 21:01 | 46.98471 | 8.96596 | 24252 ft | 350 kts | 1° |
| 2026-04-30 21:01 | 47.00876 | 8.96502 | 24250 ft | 350 kts | 1° |
| 2026-04-30 21:01 | 47.05751 | 8.96325 | 24244 ft | 350 kts | 1° |
| 2026-04-30 21:02 | 47.08191 | 8.96239 | 24246 ft | 351 kts | 1° |
| 2026-04-30 21:02 | 47.10651 | 8.96150 | 24244 ft | 351 kts | 1° |
| 2026-04-30 21:02 | 47.13044 | 8.96064 | 24253 ft | 351 kts | 1° |
| 2026-04-30 21:02 | 47.15484 | 8.95977 | 24256 ft | 351 kts | 1° |
| 2026-04-30 21:03 | 47.17927 | 8.95888 | 24257 ft | 351 kts | 1° |
| 2026-04-30 21:03 | 47.20368 | 8.95798 | 24263 ft | 351 kts | 1° |
| 2026-04-30 21:03 | 47.22806 | 8.95709 | 24265 ft | 351 kts | 1° |
| 2026-04-30 21:03 | 47.25245 | 8.95618 | 24275 ft | 351 kts | 1° |
| 2026-04-30 21:04 | 47.27683 | 8.95525 | 24273 ft | 350 kts | 1° |
| 2026-04-30 21:04 | 47.30119 | 8.95434 | 24276 ft | 350 kts | 1° |
| 2026-04-30 21:04 | 47.34992 | 8.95263 | 24280 ft | 350 kts | 1° |
| 2026-04-30 21:05 | 47.37429 | 8.95178 | 24288 ft | 350 kts | 1° |
| 2026-04-30 21:05 | 47.39865 | 8.95089 | 24289 ft | 351 kts | 1° |
| 2026-04-30 21:05 | 47.42304 | 8.95000 | 24289 ft | 351 kts | 1° |
| 2026-04-30 21:05 | 47.44746 | 8.94910 | 24288 ft | 350 kts | 1° |
| 2026-04-30 21:06 | 47.47190 | 8.94818 | 24288 ft | 351 kts | 1° |
| 2026-04-30 21:06 | 47.49626 | 8.94725 | 24289 ft | 351 kts | 1° |
| 2026-04-30 21:06 | 47.52063 | 8.94633 | 24288 ft | 351 kts | 1° |
| 2026-04-30 21:06 | 47.54502 | 8.94545 | 24254 ft | 350 kts | 1° |
| 2026-04-30 21:07 | 47.56745 | 8.94462 | 23844 ft | 348 kts | 1° |
| 2026-04-30 21:07 | 47.59157 | 8.94373 | 23345 ft | 345 kts | 1° |
| 2026-04-30 21:07 | 47.61548 | 8.94283 | 22854 ft | 342 kts | 1° |
| 2026-04-30 21:07 | 47.63914 | 8.94194 | 22383 ft | 339 kts | 1° |
| 2026-04-30 21:08 | 47.66232 | 8.94106 | 21949 ft | 336 kts | 1° |
| 2026-04-30 21:08 | 47.68379 | 8.94028 | 21542 ft | 334 kts | 2° |
| 2026-04-30 21:08 | 47.70693 | 8.93945 | 21113 ft | 331 kts | 2° |
| 2026-04-30 21:08 | 47.72988 | 8.93863 | 20691 ft | 329 kts | 2° |
| 2026-04-30 21:09 | 47.75169 | 8.93780 | 20353 ft | 325 kts | 2° |
| 2026-04-30 21:09 | 47.77414 | 8.93693 | 20005 ft | 321 kts | 2° |
| 2026-04-30 21:09 | 47.79633 | 8.93608 | 19666 ft | 317 kts | 2° |
| 2026-04-30 21:09 | 47.81829 | 8.93527 | 19336 ft | 314 kts | 2° |
| 2026-04-30 21:10 | 47.84007 | 8.93446 | 19009 ft | 312 kts | 2° |
| 2026-04-30 21:10 | 47.86140 | 8.93369 | 18686 ft | 311 kts | 2° |
| 2026-04-30 21:10 | 47.88298 | 8.93290 | 18320 ft | 310 kts | 2° |
| 2026-04-30 21:10 | 47.90450 | 8.93209 | 17948 ft | 308 kts | 2° |
| 2026-04-30 21:11 | 47.92537 | 8.93129 | 17584 ft | 307 kts | 2° |
| 2026-04-30 21:11 | 47.94643 | 8.93049 | 17231 ft | 306 kts | 2° |
| 2026-04-30 21:11 | 47.96765 | 8.92968 | 16865 ft | 305 kts | 2° |
| 2026-04-30 21:11 | 47.98892 | 8.92888 | 16507 ft | 305 kts | 2° |
| 2026-04-30 21:12 | 48.01016 | 8.92807 | 16158 ft | 305 kts | 1° |
| 2026-04-30 21:12 | 48.03131 | 8.92725 | 15812 ft | 304 kts | 1° |
| 2026-04-30 21:12 | 48.05240 | 8.92646 | 15467 ft | 303 kts | 1° |
| 2026-04-30 21:12 | 48.07356 | 8.92569 | 15134 ft | 303 kts | 1° |
| 2026-04-30 21:13 | 48.09457 | 8.92491 | 14788 ft | 302 kts | 2° |
| 2026-04-30 21:13 | 48.11553 | 8.92415 | 14435 ft | 302 kts | 1° |
| 2026-04-30 21:13 | 48.13657 | 8.92337 | 14058 ft | 303 kts | 1° |
| 2026-04-30 21:13 | 48.15766 | 8.92258 | 13658 ft | 303 kts | 1° |
| 2026-04-30 21:14 | 48.17867 | 8.92179 | 13266 ft | 302 kts | 1° |
| 2026-04-30 21:14 | 48.19966 | 8.92097 | 12879 ft | 301 kts | 1° |
| 2026-04-30 21:14 | 48.22028 | 8.92016 | 12508 ft | 301 kts | 1° |
| 2026-04-30 21:14 | 48.24118 | 8.91934 | 12123 ft | 299 kts | 1° |
| 2026-04-30 21:15 | 48.26192 | 8.91854 | 11750 ft | 296 kts | 1° |
| 2026-04-30 21:15 | 48.28211 | 8.91777 | 11383 ft | 285 kts | 1° |
| 2026-04-30 21:15 | 48.30036 | 8.91707 | 11019 ft | 277 kts | 1° |
| 2026-04-30 21:15 | 48.31982 | 8.91629 | 10519 ft | 274 kts | 1° |
| 2026-04-30 21:16 | 48.33881 | 8.91554 | 9968 ft | 272 kts | 1° |
| 2026-04-30 21:16 | 48.35764 | 8.91481 | 9386 ft | 270 kts | 1° |
| 2026-04-30 21:16 | 48.37639 | 8.91411 | 8810 ft | 268 kts | 1° |
| 2026-04-30 21:16 | 48.39495 | 8.91345 | 8326 ft | 268 kts | 2° |
| 2026-04-30 21:17 | 48.41358 | 8.91277 | 7978 ft | 266 kts | 2° |
| 2026-04-30 21:17 | 48.43146 | 8.91209 | 7833 ft | 256 kts | 2° |
| 2026-04-30 21:17 | 48.44907 | 8.91138 | 7581 ft | 252 kts | 2° |
| 2026-04-30 21:17 | 48.46647 | 8.90854 | 7337 ft | 254 kts | 345° |
| 2026-04-30 21:18 | 48.48272 | 8.89746 | 7099 ft | 257 kts | 335° |
| 2026-04-30 21:18 | 48.49845 | 8.88466 | 6851 ft | 257 kts | 334° |
| 2026-04-30 21:18 | 48.51384 | 8.87101 | 6596 ft | 257 kts | 323° |
| 2026-04-30 21:18 | 48.52563 | 8.85065 | 6356 ft | 259 kts | 306° |
| 2026-04-30 21:19 | 48.53553 | 8.82823 | 6089 ft | 254 kts | 303° |
| 2026-04-30 21:19 | 48.54201 | 8.80391 | 5834 ft | 250 kts | 276° |
| 2026-04-30 21:19 | 48.54125 | 8.77812 | 5583 ft | 246 kts | 258° |
| 2026-04-30 21:19 | 48.53821 | 8.75313 | 5334 ft | 246 kts | 256° |
| 2026-04-30 21:20 | 48.53491 | 8.72785 | 5107 ft | 246 kts | 256° |
| 2026-04-30 21:20 | 48.53163 | 8.70247 | 5007 ft | 246 kts | 256° |
| 2026-04-30 21:20 | 48.53123 | 8.67667 | 5019 ft | 250 kts | 284° |
| 2026-04-30 21:20 | 48.53925 | 8.65386 | 5016 ft | 247 kts | 317° |
| 2026-04-30 21:21 | 48.55355 | 8.64073 | 5011 ft | 239 kts | 352° |
| 2026-04-30 21:21 | 48.56959 | 8.64086 | 5010 ft | 227 kts | 23° |
| 2026-04-30 21:21 | 48.58445 | 8.67524 | 4906 ft | 205 kts | 77° |
| 2026-04-30 21:22 | 48.58878 | 8.69591 | 4946 ft | 209 kts | 77° |
| 2026-04-30 21:22 | 48.59897 | 8.75367 | 4924 ft | 211 kts | 77° |
| 2026-04-30 21:23 | 48.60320 | 8.77440 | 4922 ft | 203 kts | 76° |
| 2026-04-30 21:23 | 48.60756 | 8.79436 | 4906 ft | 198 kts | 76° |
| 2026-04-30 21:23 | 48.61617 | 8.83553 | 4955 ft | 210 kts | 76° |
| 2026-04-30 21:24 | 48.62044 | 8.85644 | 4978 ft | 203 kts | 77° |
| 2026-04-30 21:24 | 48.62410 | 8.87630 | 4946 ft | 190 kts | 78° |
| 2026-04-30 21:24 | 48.62735 | 8.89540 | 4921 ft | 186 kts | 79° |
| 2026-04-30 21:24 | 48.63072 | 8.91442 | 4925 ft | 188 kts | 77° |
| 2026-04-30 21:25 | 48.63819 | 8.95111 | 4713 ft | 175 kts | 76° |
| 2026-04-30 21:25 | 48.64181 | 8.96824 | 4506 ft | 172 kts | 77° |
| 2026-04-30 21:25 | 48.64514 | 8.98551 | 4277 ft | 170 kts | 78° |
| 2026-04-30 21:26 | 48.65164 | 9.01959 | 3844 ft | 167 kts | 78° |
| 2026-04-30 21:26 | 48.65479 | 9.03649 | 3642 ft | 166 kts | 79° |
| 2026-04-30 21:27 | 48.66104 | 9.06934 | 3168 ft | 154 kts | 77° |
| 2026-04-30 21:27 | 48.66394 | 9.08379 | 3027 ft | 133 kts | 76° |
| 2026-04-30 21:27 | 48.66641 | 9.09663 | 2827 ft | 126 kts | 78° |
| 2026-04-30 21:28 | 48.67093 | 9.12317 | 2387 ft | 135 kts | 74° |
| 2026-04-30 21:28 | 48.67371 | 9.13650 | 2215 ft | 131 kts | 73° |
| 2026-04-30 21:28 | 48.67864 | 9.16296 | 1863 ft | 131 kts | 75° |
| 2026-04-30 21:29 | 48.68117 | 9.17603 | 1703 ft | 131 kts | 75° |
| 2026-04-30 21:29 | 48.68874 | 9.21607 | 1251 ft | 113 kts | 74° |
| 2026-04-30 21:30 | 48.69130 | 9.22873 | 1219 ft | 34 kts | 60° |
| 2026-04-30 21:31 | 48.69305 | 9.23152 | 1218 ft | 0 kts | 32° |
| 2026-04-30 21:31 | 48.69325 | 9.23171 | 1218 ft | 0 kts | 31° |